Time;durP1;ratioP1;P1;durP2;ratioP2;P2;SDS_P1;SDS_P2;PMS_P1;PMS_P2;Temp;Humidity;BMP_temperature;BMP_pressure;BME280_temperature;BME280_humidity;BME280_pressure;Samples;Min_cycle;Max_cycle;Signal;HPM_P1;HPM_P2
2022/07/05 00:00:37;;;;;;;0.00;0.00;;;;;;;;;;5111689;28;20035;-81
2022/07/05 00:03:03;;;;;;;0.00;0.00;;;;;;;;;;5111761;28;20081;-81
2022/07/05 00:05:29;;;;;;;0.00;0.00;;;;;;;;;;5111843;28;20050;-82
2022/07/05 00:07:55;;;;;;;0.00;0.00;;;;;;;;;;5111920;28;20069;-81
2022/07/05 00:10:21;;;;;;;0.00;0.00;;;;;;;;;;5111522;28;20043;-82
2022/07/05 00:12:47;;;;;;;0.00;0.00;;;;;;;;;;5112176;28;20480;-81
2022/07/05 00:15:13;;;;;;;0.00;0.00;;;;;;;;;;5112027;28;20133;-81
2022/07/05 00:17:39;;;;;;;0.00;0.00;;;;;;;;;;5111549;28;20055;-81
2022/07/05 00:20:06;;;;;;;0.00;0.00;;;;;;;;;;5094903;28;20051;-81
2022/07/05 00:22:32;;;;;;;0.00;0.00;;;;;;;;;;5094468;28;20375;-81
2022/07/05 00:24:58;;;;;;;0.00;0.00;;;;;;;;;;5111653;28;20050;-81
2022/07/05 00:27:24;;;;;;;0.00;0.00;;;;;;;;;;5112781;28;20043;-81
2022/07/05 00:29:50;;;;;;;0.00;0.00;;;;;;;;;;5111928;28;20035;-81
2022/07/05 00:32:16;;;;;;;0.00;0.00;;;;;;;;;;5111419;28;20047;-81
2022/07/05 00:34:42;;;;;;;0.00;0.00;;;;;;;;;;5111541;28;20044;-82
2022/07/05 00:37:08;;;;;;;0.00;0.00;;;;;;;;;;5111269;28;20048;-81
2022/07/05 00:39:34;;;;;;;0.00;0.00;;;;;;;;;;5111560;28;20047;-81
2022/07/05 00:42:01;;;;;;;0.00;0.00;;;;;;;;;;5111248;28;20050;-81
2022/07/05 00:44:31;;;;;;;0.00;0.00;;;;;;;;;;5111376;28;20040;-81
2022/07/05 00:46:57;;;;;;;0.00;0.00;;;;;;;;;;5111315;28;20032;-81
2022/07/05 00:49:23;;;;;;;0.00;0.00;;;;;;;;;;5113251;28;20044;-81
2022/07/05 00:51:51;;;;;;;0.00;0.00;;;;;;;;;;5116221;28;20035;-82
2022/07/05 00:54:17;;;;;;;0.00;0.00;;;;;;;;;;5115068;28;20040;-82
2022/07/05 00:56:43;;;;;;;0.00;0.00;;;;;;;;;;5114864;28;20044;-82
2022/07/05 00:59:09;;;;;;;0.00;0.00;;;;;;;;;;5115111;28;20035;-81
2022/07/05 01:01:35;;;;;;;0.00;0.00;;;;;;;;;;5097801;28;20051;-81
2022/07/05 01:04:01;;;;;;;0.00;0.00;;;;;;;;;;5115054;28;20444;-82
2022/07/05 01:06:27;;;;;;;0.00;0.00;;;;;;;;;;5097964;28;20104;-82
2022/07/05 01:08:53;;;;;;;0.00;0.00;;;;;;;;;;5114847;28;20043;-82
2022/07/05 01:11:19;;;;;;;0.00;0.00;;;;;;;;;;5114801;28;20134;-81
2022/07/05 01:13:45;;;;;;;0.00;0.00;;;;;;;;;;5114650;28;20039;-81
2022/07/05 01:16:13;;;;;;;0.00;0.00;;;;;;;;;;5114884;28;20050;-81
2022/07/05 01:18:39;;;;;;;0.00;0.00;;;;;;;;;;5114792;28;20077;-82
2022/07/05 01:21:05;;;;;;;0.00;0.00;;;;;;;;;;5114302;28;20262;-82
2022/07/05 01:23:32;;;;;;;0.00;0.00;;;;;;;;;;5114415;28;20043;-82
2022/07/05 01:26:00;;;;;;;0.00;0.00;;;;;;;;;;5114848;28;20035;-82
2022/07/05 01:28:26;;;;;;;0.00;0.00;;;;;;;;;;5114323;28;20049;-82
2022/07/05 01:30:52;;;;;;;0.00;0.00;;;;;;;;;;5114784;28;20040;-82
2022/07/05 01:33:18;;;;;;;0.00;0.00;;;;;;;;;;5115368;28;20520;-81
2022/07/05 01:35:45;;;;;;;0.00;0.00;;;;;;;;;;5114225;28;20422;-82
2022/07/05 01:38:11;;;;;;;0.00;0.00;;;;;;;;;;5114151;28;20045;-81
2022/07/05 01:40:37;;;;;;;0.00;0.00;;;;;;;;;;5114356;28;20479;-81
2022/07/05 01:43:03;;;;;;;0.00;0.00;;;;;;;;;;5113941;28;20062;-81
2022/07/05 01:45:42;;;;;;;0.00;0.00;;;;;;;;;;5114010;28;20042;-81
2022/07/05 01:48:12;;;;;;;0.00;0.00;;;;;;;;;;5113955;28;20130;-82
2022/07/05 01:50:48;;;;;;;0.00;0.00;;;;;;;;;;5114268;28;20062;-81
2022/07/05 01:53:18;;;;;;;0.00;0.00;;;;;;;;;;5113836;28;20048;-82
2022/07/05 01:55:44;;;;;;;0.00;0.00;;;;;;;;;;5113867;28;20043;-81
2022/07/05 01:58:10;;;;;;;0.00;0.00;;;;;;;;;;5113851;28;20050;-82
2022/07/05 02:00:43;;;;;;;0.00;0.00;;;;;;;;;;5113912;28;20114;-82
2022/07/05 02:03:09;;;;;;;0.00;0.00;;;;;;;;;;5114949;28;20035;-82
2022/07/05 02:05:36;;;;;;;0.00;0.00;;;;;;;;;;5113661;28;20043;-82
2022/07/05 02:08:02;;;;;;;0.00;0.00;;;;;;;;;;5113897;28;20040;-82
2022/07/05 02:10:28;;;;;;;0.00;0.00;;;;;;;;;;5113763;28;20096;-82
2022/07/05 02:12:53;;;;;;;0.00;0.00;;;;;;;;;;5113301;28;20044;-82
2022/07/05 02:15:19;;;;;;;0.00;0.00;;;;;;;;;;5113487;28;20438;-82
2022/07/05 02:17:45;;;;;;;0.00;0.00;;;;;;;;;;5113391;28;20064;-82
2022/07/05 02:20:11;;;;;;;0.00;0.00;;;;;;;;;;5113501;28;20193;-82
2022/07/05 02:22:37;;;;;;;0.00;0.00;;;;;;;;;;5113283;28;20036;-82
2022/07/05 02:25:04;;;;;;;0.00;0.00;;;;;;;;;;5113279;28;20085;-82
2022/07/05 02:27:30;;;;;;;0.00;0.00;;;;;;;;;;5113103;28;20062;-82
2022/07/05 02:29:56;;;;;;;0.00;0.00;;;;;;;;;;5114246;28;20477;-81
2022/07/05 02:32:22;;;;;;;0.00;0.00;;;;;;;;;;5113326;28;20101;-81
2022/07/05 02:34:48;;;;;;;0.00;0.00;;;;;;;;;;5113158;28;20047;-82
2022/07/05 02:37:14;;;;;;;0.00;0.00;;;;;;;;;;5112991;28;20044;-81
2022/07/05 02:39:40;;;;;;;0.00;0.00;;;;;;;;;;5113161;28;20156;-81
2022/07/05 02:42:06;;;;;;;0.00;0.00;;;;;;;;;;5112595;28;20510;-82
2022/07/05 02:44:31;;;;;;;0.00;0.00;;;;;;;;;;5112885;28;20047;-81
2022/07/05 02:46:57;;;;;;;0.00;0.00;;;;;;;;;;5112812;28;20039;-82
2022/07/05 02:49:23;;;;;;;0.00;0.00;;;;;;;;;;5113211;28;20047;-82
2022/07/05 02:51:49;;;;;;;0.00;0.00;;;;;;;;;;5113204;28;20071;-82
2022/07/05 02:54:15;;;;;;;0.00;0.00;;;;;;;;;;5112703;28;20552;-82
2022/07/05 02:56:41;;;;;;;0.55;0.55;;;;;;;;;;5113047;28;20101;-82
2022/07/05 02:59:07;;;;;;;0.00;0.00;;;;;;;;;;5112508;28;20486;-81
2022/07/05 03:01:33;;;;;;;0.00;0.00;;;;;;;;;;5112612;28;20101;-81
2022/07/05 03:04:00;;;;;;;0.00;0.00;;;;;;;;;;5112626;28;20123;-83
2022/07/05 03:06:26;;;;;;;0.00;0.00;;;;;;;;;;5112556;28;20114;-82
2022/07/05 03:08:52;;;;;;;0.00;0.00;;;;;;;;;;5112287;28;20089;-82
2022/07/05 03:11:20;;;;;;;0.00;0.00;;;;;;;;;;5112062;28;20043;-82
2022/07/05 03:13:47;;;;;;;0.00;0.00;;;;;;;;;;5095248;28;20043;-81
2022/07/05 03:16:13;;;;;;;0.00;0.00;;;;;;;;;;5095507;28;20130;-81
2022/07/05 03:18:39;;;;;;;0.00;0.00;;;;;;;;;;5095557;28;20052;-82
2022/07/05 03:21:05;;;;;;;0.00;0.00;;;;;;;;;;5112727;28;20044;-81
2022/07/05 03:23:31;;;;;;;0.00;0.00;;;;;;;;;;5112101;28;20517;-82
2022/07/05 03:25:57;;;;;;;0.00;0.00;;;;;;;;;;5112225;28;20046;-81
2022/07/05 03:28:23;;;;;;;0.00;0.00;;;;;;;;;;5112089;28;20043;-82
2022/07/05 03:30:49;;;;;;;0.00;0.00;;;;;;;;;;5095173;28;20489;-82
2022/07/05 03:33:15;;;;;;;0.00;0.00;;;;;;;;;;5112003;28;20039;-81
2022/07/05 03:35:41;;;;;;;0.00;0.00;;;;;;;;;;5112264;28;20398;-81
2022/07/05 03:38:07;;;;;;;0.00;0.00;;;;;;;;;;5095062;28;20082;-81
2022/07/05 03:40:33;;;;;;;0.00;0.00;;;;;;;;;;5095232;28;20362;-82
2022/07/05 03:42:59;;;;;;;0.00;0.00;;;;;;;;;;5111907;28;20101;-82
2022/07/05 03:45:25;;;;;;;0.00;0.00;;;;;;;;;;5112027;28;20036;-82
2022/07/05 03:47:51;;;;;;;0.00;0.00;;;;;;;;;;5112159;28;20126;-81
2022/07/05 03:50:17;;;;;;;0.00;0.00;;;;;;;;;;5112420;28;20044;-82
2022/07/05 03:52:43;;;;;;;0.00;0.00;;;;;;;;;;5111853;28;20486;-81
2022/07/05 03:55:09;;;;;;;0.00;0.00;;;;;;;;;;5095149;28;20043;-81
2022/07/05 03:57:35;;;;;;;0.00;0.00;;;;;;;;;;5113219;28;20122;-81
2022/07/05 04:00:01;;;;;;;0.00;0.00;;;;;;;;;;5112206;28;20071;-81
2022/07/05 04:02:27;;;;;;;0.45;0.45;;;;;;;;;;5113026;28;20043;-81
2022/07/05 04:04:53;;;;;;;0.00;0.00;;;;;;;;;;5111616;28;20509;-81
2022/07/05 04:07:19;;;;;;;0.20;0.08;;;;;;;;;;5111771;28;20032;-81
2022/07/05 04:09:45;;;;;;;0.00;0.00;;;;;;;;;;5111635;28;20031;-81
2022/07/05 04:12:11;;;;;;;0.00;0.00;;;;;;;;;;5111808;28;20047;-81
2022/07/05 04:14:37;;;;;;;0.00;0.00;;;;;;;;;;5111744;28;20035;-81
2022/07/05 04:17:03;;;;;;;0.00;0.00;;;;;;;;;;5094866;28;20047;-81
2022/07/05 04:19:30;;;;;;;0.00;0.00;;;;;;;;;;5094969;28;20050;-82
2022/07/05 04:21:56;;;;;;;0.00;0.00;;;;;;;;;;5111681;28;20044;-81
2022/07/05 04:24:22;;;;;;;0.00;0.00;;;;;;;;;;5113351;28;20397;-81
2022/07/05 04:26:48;;;;;;;0.00;0.00;;;;;;;;;;5117173;28;20047;-81
2022/07/05 04:29:14;;;;;;;0.00;0.00;;;;;;;;;;5115521;28;20115;-82
2022/07/05 04:31:40;;;;;;;0.00;0.00;;;;;;;;;;5116991;28;20420;-82
2022/07/05 04:34:06;;;;;;;0.00;0.00;;;;;;;;;;5115226;28;20051;-82
2022/07/05 04:36:32;;;;;;;0.00;0.00;;;;;;;;;;5116745;28;20080;-81
2022/07/05 04:38:58;;;;;;;0.00;0.00;;;;;;;;;;5115259;28;20402;-82
2022/07/05 04:41:23;;;;;;;0.00;0.00;;;;;;;;;;5115329;28;20075;-82
2022/07/05 04:43:49;;;;;;;0.00;0.00;;;;;;;;;;5115108;28;20051;-82
2022/07/05 04:46:15;;;;;;;0.00;0.00;;;;;;;;;;5115404;28;20051;-82
2022/07/05 04:48:41;;;;;;;0.00;0.00;;;;;;;;;;5115020;28;20045;-82
2022/07/05 04:51:07;;;;;;;0.00;0.00;;;;;;;;;;5116464;28;20080;-82
2022/07/05 04:53:33;;;;;;;0.00;0.00;;;;;;;;;;5114923;28;20467;-82
2022/07/05 04:55:59;;;;;;;0.00;0.00;;;;;;;;;;5116453;28;20048;-82
2022/07/05 04:58:25;;;;;;;0.00;0.00;;;;;;;;;;5114946;28;20035;-82
2022/07/05 05:00:51;;;;;;;0.00;0.00;;;;;;;;;;5115067;28;20039;-82
2022/07/05 05:03:19;;;;;;;0.00;0.00;;;;;;;;;;5114744;28;20122;-82
2022/07/05 05:05:45;;;;;;;0.00;0.00;;;;;;;;;;5114766;28;20122;-82
2022/07/05 05:08:11;;;;;;;0.20;0.15;;;;;;;;;;5114922;28;20431;-83
2022/07/05 05:10:37;;;;;;;0.00;0.00;;;;;;;;;;5115019;28;20051;-83
2022/07/05 05:13:03;;;;;;;0.00;0.00;;;;;;;;;;5114870;28;20051;-82
2022/07/05 05:15:29;;;;;;;0.00;0.00;;;;;;;;;;5114637;28;20043;-82
2022/07/05 05:17:55;;;;;;;0.00;0.00;;;;;;;;;;5114669;28;20044;-83
2022/07/05 05:20:21;;;;;;;0.00;0.00;;;;;;;;;;5114612;28;20066;-82
2022/07/05 05:22:47;;;;;;;0.00;0.00;;;;;;;;;;5114597;28;20047;-83
2022/07/05 05:25:13;;;;;;;0.00;0.00;;;;;;;;;;5114244;28;20043;-83
2022/07/05 05:27:44;;;;;;;0.00;0.00;;;;;;;;;;5114579;28;20038;-82
2022/07/05 05:30:10;;;;;;;0.00;0.00;;;;;;;;;;5114303;28;20043;-82
2022/07/05 05:32:36;;;;;;;0.00;0.00;;;;;;;;;;5114768;28;20051;-82
2022/07/05 05:35:02;;;;;;;0.00;0.00;;;;;;;;;;5113698;28;20040;-82
2022/07/05 05:37:28;;;;;;;0.00;0.00;;;;;;;;;;5114599;28;20039;-82
2022/07/05 05:39:54;;;;;;;0.00;0.00;;;;;;;;;;5114190;28;20046;-81
2022/07/05 05:42:20;;;;;;;0.00;0.00;;;;;;;;;;5114404;28;20051;-82
2022/07/05 05:44:46;;;;;;;0.00;0.00;;;;;;;;;;5097147;28;20041;-82
2022/07/05 05:47:12;;;;;;;0.00;0.00;;;;;;;;;;5114132;28;20543;-82
2022/07/05 05:49:38;;;;;;;0.00;0.00;;;;;;;;;;5114239;28;20039;-81
2022/07/05 05:52:04;;;;;;;0.00;0.00;;;;;;;;;;5114129;28;20211;-82
2022/07/05 05:54:30;;;;;;;0.00;0.00;;;;;;;;;;5096985;28;20047;-81
2022/07/05 05:56:56;;;;;;;0.00;0.00;;;;;;;;;;5115486;28;20050;-82
2022/07/05 05:59:22;;;;;;;0.00;0.00;;;;;;;;;;5113766;28;20046;-82
2022/07/05 06:01:48;;;;;;;0.00;0.00;;;;;;;;;;5113812;28;20092;-82
2022/07/05 06:04:14;;;;;;;0.00;0.00;;;;;;;;;;5113538;28;20389;-82
2022/07/05 06:06:40;;;;;;;0.00;0.00;;;;;;;;;;5113746;28;20089;-82
2022/07/05 06:09:06;;;;;;;0.00;0.00;;;;;;;;;;5096628;28;20044;-82
2022/07/05 06:11:32;;;;;;;0.00;0.00;;;;;;;;;;5113662;28;20039;-81
2022/07/05 06:13:58;;;;;;;0.00;0.00;;;;;;;;;;5113363;28;20039;-81
2022/07/05 06:16:24;;;;;;;0.00;0.00;;;;;;;;;;5113551;28;20039;-82
2022/07/05 06:18:50;;;;;;;0.00;0.00;;;;;;;;;;5096766;28;20165;-81
2022/07/05 06:21:16;;;;;;;0.00;0.00;;;;;;;;;;5096295;28;20532;-82
2022/07/05 06:23:42;;;;;;;0.00;0.00;;;;;;;;;;5113403;28;20039;-82
2022/07/05 06:26:08;;;;;;;0.00;0.00;;;;;;;;;;5113172;28;20411;-82
2022/07/05 06:28:34;;;;;;;0.00;0.00;;;;;;;;;;5113403;28;20039;-81
2022/07/05 06:31:00;;;;;;;0.00;0.00;;;;;;;;;;5113072;28;20051;-84
2022/07/05 06:33:27;;;;;;;0.00;0.00;;;;;;;;;;5113112;28;20039;-81
2022/07/05 06:35:53;;;;;;;0.00;0.00;;;;;;;;;;5096007;28;20042;-81
2022/07/05 06:38:19;;;;;;;0.00;0.00;;;;;;;;;;5113122;28;20040;-81
2022/07/05 06:40:45;;;;;;;0.00;0.00;;;;;;;;;;5095840;28;20121;-82
2022/07/05 06:43:12;;;;;;;0.00;0.00;;;;;;;;;;5112995;28;20317;-81
2022/07/05 06:45:39;;;;;;;0.00;0.00;;;;;;;;;;5108255;28;20040;-81
2022/07/05 06:48:08;;;;;;;0.00;0.00;;;;;;;;;;5091463;28;20467;-85
2022/07/05 06:50:36;;;;;;;0.00;0.00;;;;;;;;;;5092291;28;20067;-86
2022/07/05 06:53:02;;;;;;;0.00;0.00;;;;;;;;;;5091967;28;20036;-83
2022/07/05 06:55:28;;;;;;;0.00;0.00;;;;;;;;;;5091648;28;20040;-81
2022/07/05 06:57:58;;;;;;;0.00;0.00;;;;;;;;;;5092125;28;20557;-81
2022/07/05 07:00:24;;;;;;;0.00;0.00;;;;;;;;;;5091883;28;20044;-83
2022/07/05 07:02:50;;;;;;;0.00;0.00;;;;;;;;;;5091655;28;20094;-81
2022/07/05 07:05:16;;;;;;;0.00;0.00;;;;;;;;;;5092975;28;20089;-81
2022/07/05 07:10:27;;;;;;;0.00;0.00;;;;;;;;;;5110774;28;20114;-81
2022/07/05 07:12:53;;;;;;;0.00;0.00;;;;;;;;;;5111811;28;20051;-82
2022/07/05 07:15:19;;;;;;;0.00;0.00;;;;;;;;;;5111768;28;20047;-82
2022/07/05 07:17:45;;;;;;;0.00;0.00;;;;;;;;;;5111868;28;20079;-82
2022/07/05 07:20:11;;;;;;;0.00;0.00;;;;;;;;;;5094952;28;20070;-82
2022/07/05 07:22:37;;;;;;;0.00;0.00;;;;;;;;;;5111778;28;20050;-82
2022/07/05 07:25:05;;;;;;;0.00;0.00;;;;;;;;;;5111753;28;20044;-81
2022/07/05 07:27:31;;;;;;;0.00;0.00;;;;;;;;;;5094994;28;20044;-82
2022/07/05 07:29:57;;;;;;;0.00;0.00;;;;;;;;;;5111320;28;20142;-82
2022/07/05 07:32:23;;;;;;;0.00;0.00;;;;;;;;;;5111914;28;20089;-82
2022/07/05 07:34:49;;;;;;;0.00;0.00;;;;;;;;;;5111531;28;20446;-82
2022/07/05 07:37:15;;;;;;;0.00;0.00;;;;;;;;;;5111708;28;20062;-82
2022/07/05 07:39:41;;;;;;;0.00;0.00;;;;;;;;;;5111708;28;20043;-82
2022/07/05 07:42:08;;;;;;;0.00;0.00;;;;;;;;;;5111065;28;20057;-82
2022/07/05 07:44:34;;;;;;;0.00;0.00;;;;;;;;;;5111846;28;20088;-82
2022/07/05 07:47:00;;;;;;;0.00;0.00;;;;;;;;;;5094618;28;20122;-84
2022/07/05 07:49:26;;;;;;;0.00;0.00;;;;;;;;;;5111540;28;20032;-81
2022/07/05 07:51:52;;;;;;;0.00;0.00;;;;;;;;;;5111946;28;20498;-81
2022/07/05 07:54:18;;;;;;;0.00;0.00;;;;;;;;;;5111570;28;20043;-81
2022/07/05 07:56:44;;;;;;;0.00;0.00;;;;;;;;;;5111917;28;20169;-80
2022/07/05 07:59:11;;;;;;;0.00;0.00;;;;;;;;;;5115292;28;20122;-81
2022/07/05 08:01:37;;;;;;;0.00;0.00;;;;;;;;;;5115928;28;20046;-80
2022/07/05 08:04:03;;;;;;;0.00;0.00;;;;;;;;;;5117346;28;20130;-80
2022/07/05 08:06:29;;;;;;;0.00;0.00;;;;;;;;;;5116016;28;20085;-80
2022/07/05 08:08:56;;;;;;;0.00;0.00;;;;;;;;;;5115269;28;20039;-80
2022/07/05 08:11:22;;;;;;;0.00;0.00;;;;;;;;;;5116570;28;20036;-80
2022/07/05 08:13:48;;;;;;;0.00;0.00;;;;;;;;;;5116438;28;20047;-81
2022/07/05 08:16:14;;;;;;;0.00;0.00;;;;;;;;;;5115667;28;20036;-81
2022/07/05 08:21:32;;;;;;;0.00;0.00;;;;;;;;;;5116753;28;20497;-81
2022/07/05 08:24:02;;;;;;;0.00;0.00;;;;;;;;;;5115957;28;20485;-81
2022/07/05 08:26:30;;;;;;;0.00;0.00;;;;;;;;;;5115491;28;20069;-81
2022/07/05 08:28:58;;;;;;;0.00;0.00;;;;;;;;;;5115702;28;20054;-81
2022/07/05 08:31:24;;;;;;;0.00;0.00;;;;;;;;;;5115663;28;20039;-80
2022/07/05 08:33:51;;;;;;;0.00;0.00;;;;;;;;;;5115403;28;20051;-81
2022/07/05 08:36:17;;;;;;;0.00;0.00;;;;;;;;;;5115344;28;20095;-82
2022/07/05 08:38:43;;;;;;;0.00;0.00;;;;;;;;;;5115470;28;20114;-81
2022/07/05 08:41:10;;;;;;;0.00;0.00;;;;;;;;;;5114932;28;20083;-81
2022/07/05 08:43:40;;;;;;;0.00;0.00;;;;;;;;;;5115243;28;20059;-80
2022/07/05 08:46:08;;;;;;;0.00;0.00;;;;;;;;;;5116367;28;20465;-81
2022/07/05 08:48:41;;;;;;;0.00;0.00;;;;;;;;;;5098229;28;20067;-81
2022/07/05 08:51:08;;;;;;;0.00;0.00;;;;;;;;;;5095036;28;20114;-81
2022/07/05 08:53:34;;;;;;;0.00;0.00;;;;;;;;;;5115368;28;20044;-81
2022/07/05 08:56:00;;;;;;;0.00;0.00;;;;;;;;;;5114885;28;20032;-81
2022/07/05 08:58:26;;;;;;;0.00;0.00;;;;;;;;;;5116393;28;20082;-80
2022/07/05 09:00:52;;;;;;;0.00;0.00;;;;;;;;;;5115169;28;20082;-81
2022/07/05 09:03:18;;;;;;;0.00;0.00;;;;;;;;;;5114834;28;20501;-79
2022/07/05 09:05:45;;;;;;;0.00;0.00;;;;;;;;;;5114931;28;20044;-83
2022/07/05 09:08:15;;;;;;;0.00;0.00;;;;;;;;;;5114895;28;20049;-83
2022/07/05 09:10:42;;;;;;;0.00;0.00;;;;;;;;;;5097434;28;20035;-83
2022/07/05 09:13:08;;;;;;;0.00;0.00;;;;;;;;;;5115038;28;20505;-84
2022/07/05 09:15:34;;;;;;;0.00;0.00;;;;;;;;;;5114692;28;20044;-83
2022/07/05 09:18:01;;;;;;;0.00;0.00;;;;;;;;;;5114417;28;20051;-82
2022/07/05 09:20:27;;;;;;;0.00;0.00;;;;;;;;;;5114671;28;20088;-83
2022/07/05 09:22:55;;;;;;;0.00;0.00;;;;;;;;;;5114352;28;20046;-84
2022/07/05 09:25:24;;;;;;;0.00;0.00;;;;;;;;;;5114735;28;20477;-83
2022/07/05 09:27:54;;;;;;;0.00;0.00;;;;;;;;;;5114550;28;20092;-84
2022/07/05 09:30:28;;;;;;;0.00;0.00;;;;;;;;;;5097861;28;20035;-83
2022/07/05 09:33:05;;;;;;;0.00;0.00;;;;;;;;;;5115489;28;20486;-84
2022/07/05 09:35:31;;;;;;;0.00;0.00;;;;;;;;;;5114595;28;20146;-83
2022/07/05 09:37:57;;;;;;;0.00;0.00;;;;;;;;;;5114141;28;20047;-83
2022/07/05 09:40:23;;;;;;;0.00;0.00;;;;;;;;;;5114237;28;20047;-83
2022/07/05 09:42:50;;;;;;;0.20;0.00;;;;;;;;;;5113844;28;20039;-84
2022/07/05 09:45:25;;;;;;;0.00;0.00;;;;;;;;;;5097283;28;20040;-83
2022/07/05 09:47:54;;;;;;;0.00;0.00;;;;;;;;;;5093479;28;20036;-83
2022/07/05 09:50:47;;;;;;;0.00;0.00;;;;;;;;;;5093816;28;20044;-82
2022/07/05 09:53:13;;;;;;;0.00;0.00;;;;;;;;;;5091906;28;20398;-84
2022/07/05 09:55:40;;;;;;;0.00;0.00;;;;;;;;;;5076601;28;20560;-81
2022/07/05 09:58:06;;;;;;;0.00;0.00;;;;;;;;;;5094562;28;20036;-84
2022/07/05 10:00:31;;;;;;;0.00;0.00;;;;;;;;;;5093517;28;20111;-81
2022/07/05 10:03:02;;;;;;;0.00;0.00;;;;;;;;;;5092041;28;20055;-84
2022/07/05 10:05:32;;;;;;;0.00;0.00;;;;;;;;;;5093461;28;20486;-85
2022/07/05 10:08:01;;;;;;;0.00;0.00;;;;;;;;;;5094603;28;20107;-86
2022/07/05 10:10:31;;;;;;;0.00;0.00;;;;;;;;;;5076428;28;20040;-85
2022/07/05 10:13:06;;;;;;;0.00;0.00;;;;;;;;;;5092977;28;20044;-85
2022/07/05 10:15:32;;;;;;;;;;;;;;;;;;5093757;28;20048;-83
2022/07/05 10:17:58;;;;;;;0.00;0.00;;;;;;;;;;5101225;28;20373;-85
2022/07/05 10:20:29;;;;;;;0.00;0.00;;;;;;;;;;5113185;28;20105;-84
2022/07/05 10:22:56;;;;;;;0.00;0.00;;;;;;;;;;5094956;28;20039;-84
2022/07/05 10:25:23;;;;;;;0.00;0.00;;;;;;;;;;5112932;28;20044;-83
2022/07/05 10:27:53;;;;;;;0.00;0.00;;;;;;;;;;5113302;28;20455;-83
2022/07/05 10:30:20;;;;;;;0.00;0.00;;;;;;;;;;5096426;28;20126;-84
2022/07/05 10:32:46;;;;;;;0.00;0.00;;;;;;;;;;5112942;28;20047;-84
2022/07/05 10:35:13;;;;;;;0.00;0.00;;;;;;;;;;5113252;28;20045;-83
2022/07/05 10:37:39;;;;;;;0.00;0.00;;;;;;;;;;5113055;28;20039;-83
2022/07/05 10:40:07;;;;;;;0.00;0.00;;;;;;;;;;5113407;28;20159;-83
2022/07/05 10:42:41;;;;;;;0.00;0.00;;;;;;;;;;5112621;28;20052;-84
2022/07/05 10:45:26;;;;;;;0.00;0.00;;;;;;;;;;5113118;28;20058;-84
2022/07/05 10:48:10;;;;;;;0.00;0.00;;;;;;;;;;5112795;28;20040;-83
2022/07/05 10:50:51;;;;;;;0.00;0.00;;;;;;;;;;5112798;28;20039;-83
2022/07/05 10:53:18;;;;;;;0.00;0.00;;;;;;;;;;5111522;28;20506;-83
2022/07/05 10:56:14;;;;;;;0.00;0.00;;;;;;;;;;5114076;28;20051;-83
2022/07/05 10:58:47;;;;;;;0.00;0.00;;;;;;;;;;5095723;28;20075;-83
2022/07/05 11:01:13;;;;;;;0.00;0.00;;;;;;;;;;5095742;28;20043;-83
2022/07/05 11:03:40;;;;;;;0.00;0.00;;;;;;;;;;5112442;28;20196;-83
2022/07/05 11:06:07;;;;;;;0.00;0.00;;;;;;;;;;5112881;28;20039;-83
2022/07/05 11:08:52;;;;;;;0.00;0.00;;;;;;;;;;5113612;27;20043;-83
2022/07/05 11:11:23;;;;;;;0.00;0.00;;;;;;;;;;5112822;28;20043;-83
2022/07/05 11:13:49;;;;;;;0.00;0.00;;;;;;;;;;5112285;28;20039;-83
2022/07/05 11:16:23;;;;;;;0.00;0.00;;;;;;;;;;5112740;28;20048;-83
2022/07/05 11:18:51;;;;;;;0.00;0.00;;;;;;;;;;5112196;28;20093;-84
2022/07/05 11:21:18;;;;;;;0.00;0.00;;;;;;;;;;5112703;28;20043;-82
2022/07/05 11:23:44;;;;;;;0.00;0.00;;;;;;;;;;5113675;28;20043;-83
2022/07/05 11:26:11;;;;;;;0.00;0.00;;;;;;;;;;5113863;28;20441;-83
2022/07/05 11:28:44;;;;;;;0.00;0.00;;;;;;;;;;5112087;28;20039;-82
2022/07/05 11:31:10;;;;;;;0.00;0.00;;;;;;;;;;5112511;28;20044;-82
2022/07/05 11:33:36;;;;;;;0.00;0.00;;;;;;;;;;5111931;28;20135;-83
2022/07/05 11:36:04;;;;;;;0.00;0.00;;;;;;;;;;5112227;28;20118;-83
2022/07/05 11:38:31;;;;;;;0.00;0.00;;;;;;;;;;5095162;28;20126;-83
2022/07/05 11:41:10;;;;;;;0.00;0.00;;;;;;;;;;5111995;28;20063;-82
2022/07/05 11:43:38;;;;;;;0.00;0.00;;;;;;;;;;5111920;28;20046;-84
2022/07/05 11:46:04;;;;;;;0.00;0.00;;;;;;;;;;5111782;28;20139;-85
2022/07/05 11:48:30;;;;;;;0.00;0.00;;;;;;;;;;5111597;28;20126;-83
2022/07/05 11:50:56;;;;;;;0.00;0.00;;;;;;;;;;5111806;28;20039;-83
2022/07/05 11:53:26;;;;;;;0.00;0.00;;;;;;;;;;5113079;28;20039;-83
2022/07/05 11:55:58;;;;;;;0.00;0.00;;;;;;;;;;5113398;28;20126;-82
2022/07/05 11:58:31;;;;;;;0.00;0.00;;;;;;;;;;5111752;28;20530;-82
2022/07/05 12:00:57;;;;;;;0.00;0.00;;;;;;;;;;5113657;28;20070;-83
2022/07/05 12:03:23;;;;;;;0.00;0.00;;;;;;;;;;5111893;28;20486;-83
2022/07/05 12:05:49;;;;;;;0.00;0.00;;;;;;;;;;5113176;28;20043;-83
2022/07/05 12:08:25;;;;;;;0.00;0.00;;;;;;;;;;5112268;28;20040;-83
2022/07/05 12:13:49;;;;;;;0.00;0.00;;;;;;;;;;5112203;28;20051;-82
2022/07/05 12:16:15;;;;;;;0.00;0.00;;;;;;;;;;5111842;28;20043;-81
2022/07/05 12:18:51;;;;;;;0.00;0.00;;;;;;;;;;5111846;28;20050;-81
2022/07/05 12:21:20;;;;;;;0.00;0.00;;;;;;;;;;5111552;28;20044;-82
2022/07/05 12:23:46;;;;;;;0.00;0.00;;;;;;;;;;5111636;28;20043;-83
2022/07/05 12:26:13;;;;;;;0.00;0.00;;;;;;;;;;5111739;28;20044;-82
2022/07/05 12:28:39;;;;;;;0.00;0.00;;;;;;;;;;5111697;28;20035;-83
2022/07/05 12:31:34;;;;;;;0.00;0.00;;;;;;;;;;5111518;28;20063;-84
2022/07/05 12:34:16;;;;;;;0.00;0.00;;;;;;;;;;5102701;28;20048;-84
2022/07/05 12:36:45;;;;;;;0.00;0.00;;;;;;;;;;5112962;28;20126;-83
2022/07/05 12:39:11;;;;;;;0.00;0.00;;;;;;;;;;5111392;28;20040;-83
2022/07/05 12:41:42;;;;;;;0.00;0.00;;;;;;;;;;5111377;28;20055;-83
2022/07/05 12:44:09;;;;;;;0.00;0.00;;;;;;;;;;5094294;28;20040;-82
2022/07/05 12:46:37;;;;;;;0.00;0.00;;;;;;;;;;5116761;28;20043;-83
2022/07/05 12:49:03;;;;;;;0.00;0.00;;;;;;;;;;5115609;28;20039;-83
2022/07/05 12:51:39;;;;;;;0.00;0.00;;;;;;;;;;5115159;28;20117;-83
2022/07/05 12:59:40;;;;;;;0.00;0.00;;;;;;;;;;5114866;28;20043;-83
2022/07/05 13:02:06;;;;;;;0.00;0.00;;;;;;;;;;5115097;28;20051;-83
2022/07/05 13:04:32;;;;;;;0.00;0.00;;;;;;;;;;5114682;28;20032;-82
2022/07/05 13:06:59;;;;;;;0.00;0.00;;;;;;;;;;5115051;28;20404;-83
2022/07/05 13:09:28;;;;;;;0.00;0.00;;;;;;;;;;5114872;28;20123;-82
2022/07/05 13:12:13;;;;;;;0.00;0.00;;;;;;;;;;5114871;28;20044;-83
2022/07/05 13:14:41;;;;;;;0.00;0.00;;;;;;;;;;5114518;28;20043;-83
2022/07/05 13:17:08;;;;;;;0.00;0.00;;;;;;;;;;5114748;28;20035;-83
2022/07/05 13:19:34;;;;;;;0.00;0.00;;;;;;;;;;5113408;28;20043;-83
2022/07/05 13:22:00;;;;;;;0.00;0.00;;;;;;;;;;5097743;28;20067;-82
2022/07/05 13:24:26;;;;;;;0.00;0.00;;;;;;;;;;5114534;28;20358;-82
2022/07/05 13:26:52;;;;;;;0.00;0.00;;;;;;;;;;5114455;28;20499;-83
2022/07/05 13:29:18;;;;;;;0.00;0.00;;;;;;;;;;5114933;28;20126;-81
2022/07/05 13:31:44;;;;;;;0.00;0.00;;;;;;;;;;5114386;28;20493;-82
2022/07/05 13:34:10;;;;;;;0.00;0.00;;;;;;;;;;5114601;28;20035;-82
2022/07/05 13:36:36;;;;;;;0.00;0.00;;;;;;;;;;5114738;28;20056;-83
2022/07/05 13:39:02;;;;;;;0.00;0.00;;;;;;;;;;5097356;28;20536;-82
2022/07/05 13:41:28;;;;;;;0.00;0.00;;;;;;;;;;5114033;28;20139;-82
2022/07/05 13:43:55;;;;;;;0.00;0.00;;;;;;;;;;5114079;28;20043;-82
2022/07/05 13:46:21;;;;;;;0.00;0.00;;;;;;;;;;5113964;28;20045;-83
2022/07/05 13:48:47;;;;;;;0.00;0.00;;;;;;;;;;5114082;28;20070;-83
2022/07/05 13:51:13;;;;;;;0.00;0.00;;;;;;;;;;5114108;28;20036;-82
2022/07/05 13:53:39;;;;;;;0.00;0.00;;;;;;;;;;5114007;28;20070;-82
2022/07/05 13:56:05;;;;;;;0.00;0.00;;;;;;;;;;5113952;28;20075;-82
2022/07/05 13:58:32;;;;;;;0.00;0.00;;;;;;;;;;5113969;28;20047;-83
2022/07/05 14:00:58;;;;;;;0.00;0.00;;;;;;;;;;5113717;28;20044;-83
2022/07/05 14:03:24;;;;;;;0.00;0.00;;;;;;;;;;5096781;28;20078;-82
2022/07/05 14:05:50;;;;;;;0.00;0.00;;;;;;;;;;5113580;28;20036;-82
2022/07/05 14:08:21;;;;;;;0.00;0.00;;;;;;;;;;5096765;28;20078;-82
2022/07/05 14:10:50;;;;;;;0.00;0.00;;;;;;;;;;5113895;28;20371;-83
2022/07/05 14:13:16;;;;;;;0.00;0.00;;;;;;;;;;5115126;28;20047;-82
2022/07/05 14:15:42;;;;;;;0.00;0.00;;;;;;;;;;5113291;28;20462;-82
2022/07/05 14:18:09;;;;;;;0.00;0.00;;;;;;;;;;5113567;28;20082;-82
2022/07/05 14:20:35;;;;;;;0.00;0.00;;;;;;;;;;5113292;28;20380;-83
2022/07/05 14:23:01;;;;;;;0.00;0.00;;;;;;;;;;5113638;28;20103;-82
2022/07/05 14:25:27;;;;;;;0.00;0.00;;;;;;;;;;5113206;28;20051;-82
2022/07/05 14:27:53;;;;;;;0.00;0.00;;;;;;;;;;5113366;28;20043;-83
2022/07/05 14:30:19;;;;;;;0.00;0.00;;;;;;;;;;5113281;28;20047;-82
2022/07/05 14:32:45;;;;;;;0.00;0.00;;;;;;;;;;5113312;28;20051;-82
2022/07/05 14:35:11;;;;;;;0.00;0.00;;;;;;;;;;5113441;28;20051;-83
2022/07/05 14:37:37;;;;;;;0.00;0.00;;;;;;;;;;5114515;28;20043;-83
2022/07/05 14:40:04;;;;;;;0.00;0.00;;;;;;;;;;5113193;28;20043;-82
2022/07/05 14:42:31;;;;;;;0.13;0.10;;;;;;;;;;5095680;28;20048;-83
2022/07/05 14:44:57;;;;;;;0.10;0.00;;;;;;;;;;5095943;28;20043;-83
2022/07/05 14:47:26;;;;;;;0.00;0.00;;;;;;;;;;5112817;28;20386;-83
2022/07/05 14:49:52;;;;;;;0.00;0.00;;;;;;;;;;5112937;28;20088;-83
2022/07/05 14:52:18;;;;;;;0.00;0.00;;;;;;;;;;5095750;28;20116;-83
2022/07/05 14:54:44;;;;;;;0.00;0.00;;;;;;;;;;5114127;28;20099;-82
2022/07/05 14:57:10;;;;;;;0.00;0.00;;;;;;;;;;5112868;28;20039;-82